createdAt,value
2023-02-15T00:02:12.937Z,2.99
2023-02-15T00:04:50.012Z,3.03
2023-02-15T00:07:20.745Z,3.22
2023-02-15T00:09:48.889Z,3.37
2023-02-15T00:12:17.585Z,3.48
2023-02-15T00:14:45.492Z,3.45
2023-02-15T00:17:13.409Z,3.27
2023-02-15T00:19:42.126Z,3.43
2023-02-15T00:22:10.402Z,3.43
2023-02-15T00:24:39.687Z,3.40
2023-02-15T00:27:07.655Z,3.18
2023-02-15T00:29:35.615Z,3.30
2023-02-15T00:32:03.497Z,3.35
2023-02-15T00:34:31.462Z,3.32
2023-02-15T00:36:59.388Z,3.38
2023-02-15T00:39:28.335Z,3.19
2023-02-15T00:41:57.644Z,2.92
2023-02-15T00:44:25.581Z,3.08
2023-02-15T00:46:53.466Z,3.19
2023-02-15T00:49:21.386Z,3.16
2023-02-15T00:51:49.354Z,3.14
2023-02-15T00:54:17.253Z,3.07
2023-02-15T00:56:45.154Z,2.90
2023-02-15T00:59:14.479Z,3.03
2023-02-15T01:01:42.576Z,3.20
2023-02-15T01:04:10.502Z,3.03
2023-02-15T01:06:38.519Z,3.12
2023-02-15T01:09:06.458Z,3.17
2023-02-15T01:11:34.581Z,2.91
2023-02-15T01:14:04.197Z,3.32
2023-02-15T01:16:35.190Z,3.16
2023-02-15T01:19:04.400Z,2.89
2023-02-15T01:21:35.363Z,2.84
2023-02-15T01:24:03.372Z,2.80
2023-02-15T01:26:31.271Z,2.94
2023-02-15T01:28:59.189Z,2.94
2023-02-15T01:31:27.285Z,2.80
2023-02-15T01:33:56.673Z,2.57
2023-02-15T01:36:24.548Z,2.72
2023-02-15T01:38:52.471Z,2.89
2023-02-15T01:41:24.216Z,2.77
2023-02-15T01:43:54.200Z,2.76
2023-02-15T01:46:25.311Z,2.62
2023-02-15T01:48:57.971Z,2.53
2023-02-15T01:51:27.638Z,2.79
2023-02-15T01:53:59.809Z,3.02
2023-02-15T01:56:31.144Z,3.16
2023-02-15T01:59:01.910Z,2.97
2023-02-15T02:01:30.170Z,2.92
2023-02-15T02:04:08.046Z,2.63
2023-02-15T02:06:37.610Z,2.75
2023-02-15T02:09:05.866Z,2.57
2023-02-15T02:11:34.692Z,2.43
2023-02-15T02:14:02.635Z,2.45
2023-02-15T02:16:37.947Z,2.90
2023-02-15T02:19:41.352Z,2.99
2023-02-15T02:22:51.343Z,3.29
2023-02-15T02:25:41.672Z,2.57
2023-02-15T02:28:23.250Z,2.59
2023-02-15T02:31:24.703Z,2.43
2023-02-15T02:33:59.983Z,2.26
2023-02-15T02:36:34.025Z,2.41
2023-02-15T02:39:15.637Z,2.38
2023-02-15T02:41:52.686Z,2.46
2023-02-15T02:44:24.129Z,2.73
2023-02-15T02:46:54.649Z,2.73
2023-02-15T02:49:37.602Z,2.45
2023-02-15T02:52:07.763Z,2.41
2023-02-15T02:54:36.969Z,2.28
2023-02-15T02:57:06.706Z,2.34
2023-02-15T02:59:36.451Z,2.32
2023-02-15T03:02:08.979Z,2.16
2023-02-15T03:04:40.144Z,1.96
2023-02-15T03:07:10.962Z,2.13
2023-02-15T03:09:43.652Z,2.53
2023-02-15T03:12:13.309Z,2.52
2023-02-15T03:14:41.453Z,2.12
2023-02-15T03:17:10.198Z,2.01
2023-02-15T03:19:41.322Z,2.39
2023-02-15T03:22:12.706Z,2.16
2023-02-15T03:24:43.297Z,2.34
2023-02-15T03:27:14.712Z,2.68
2023-02-15T03:29:42.684Z,2.75
2023-02-15T03:32:12.772Z,2.57
2023-02-15T03:34:42.145Z,2.13
2023-02-15T03:37:15.723Z,2.25
2023-02-15T03:39:47.390Z,2.59
2023-02-15T03:42:18.940Z,2.59
2023-02-15T03:44:54.373Z,2.47
2023-02-15T03:47:25.683Z,2.38
2023-02-15T03:49:57.279Z,1.95
2023-02-15T03:52:25.932Z,2.56
2023-02-15T03:54:54.136Z,2.90
2023-02-15T03:57:41.175Z,2.41
2023-02-15T04:00:32.032Z,2.00
2023-02-15T04:03:25.040Z,1.83
2023-02-15T04:05:54.346Z,2.05
2023-02-15T04:08:42.285Z,1.78
2023-02-15T04:11:09.171Z,1.88
2023-02-15T04:13:37.044Z,1.76
2023-02-15T04:16:05.124Z,1.78
2023-02-15T04:18:51.813Z,2.38
2023-02-15T04:21:39.802Z,2.20
2023-02-15T04:24:25.466Z,1.95
2023-02-15T04:26:54.631Z,1.73
2023-02-15T04:29:22.904Z,1.62
2023-02-15T04:31:51.223Z,1.66
2023-02-15T04:34:19.376Z,1.49
2023-02-15T04:36:48.716Z,1.47
2023-02-15T04:39:17.899Z,1.36
2023-02-15T04:41:46.004Z,1.50
2023-02-15T04:44:13.913Z,1.45
2023-02-15T04:46:41.808Z,1.42
2023-02-15T04:49:10.376Z,1.94
2023-02-15T04:51:38.650Z,1.55
2023-02-15T04:54:08.067Z,1.63
2023-02-15T04:56:38.714Z,1.63
2023-02-15T04:59:06.696Z,1.44
2023-02-15T05:01:34.623Z,1.40
2023-02-15T05:04:02.624Z,1.43
2023-02-15T05:06:30.990Z,1.62
2023-02-15T05:09:00.179Z,1.71
2023-02-15T05:11:29.640Z,1.21
2023-02-15T05:13:57.516Z,1.18
2023-02-15T05:16:26.631Z,1.27
2023-02-15T05:18:54.546Z,1.60
2023-02-15T05:21:22.853Z,1.43
2023-02-15T05:23:50.761Z,1.58
2023-02-15T05:26:38.798Z,2.24
2023-02-15T05:29:08.374Z,1.77
2023-02-15T05:31:36.936Z,1.01
2023-02-15T05:34:05.452Z,0.75
2023-02-15T05:36:33.342Z,0.78
2023-02-15T05:39:01.239Z,0.78
2023-02-15T05:41:29.206Z,1.13
2023-02-15T05:43:57.612Z,1.23
2023-02-15T05:46:26.915Z,1.19
2023-02-15T05:48:54.848Z,1.22
2023-02-15T05:51:22.730Z,1.35
2023-02-15T05:53:50.632Z,0.95
2023-02-15T05:56:18.549Z,0.93
2023-02-15T05:58:46.487Z,1.18
2023-02-15T06:01:15.852Z,1.00
2023-02-15T06:03:45.388Z,0.90
2023-02-15T06:06:13.508Z,1.16
2023-02-15T06:08:41.538Z,0.84
2023-02-15T06:11:09.558Z,0.83
2023-02-15T06:13:38.909Z,0.87
2023-02-15T06:16:07.788Z,0.91
2023-02-15T06:18:35.869Z,0.87
2023-02-15T06:21:05.245Z,1.40
2023-02-15T06:23:33.188Z,0.71
2023-02-15T06:26:01.465Z,1.00
2023-02-15T06:28:29.592Z,1.26
2023-02-15T06:30:57.639Z,0.86
2023-02-15T06:33:25.795Z,0.58
2023-02-15T06:35:53.846Z,0.62
2023-02-15T06:38:23.135Z,1.03
2023-02-15T06:40:51.018Z,0.52
2023-02-15T06:43:19.011Z,0.44
2023-02-15T06:45:47.233Z,0.39
2023-02-15T06:48:15.409Z,1.18
2023-02-15T06:50:43.363Z,1.48
2023-02-15T06:53:11.288Z,1.04
2023-02-15T06:55:40.608Z,0.54
2023-02-15T06:58:08.536Z,0.46
2023-02-15T07:00:36.460Z,0.30
2023-02-15T07:03:04.397Z,0.38
2023-02-15T07:05:35.959Z,0.82
2023-02-15T07:08:04.076Z,0.96
2023-02-15T07:10:32.071Z,1.68
2023-02-15T07:13:00.367Z,1.85
2023-02-15T07:15:28.344Z,0.77
2023-02-15T07:17:56.213Z,0.62
2023-02-15T07:20:25.846Z,0.59
2023-02-15T07:22:53.956Z,0.51
2023-02-15T07:25:22.414Z,1.10
2023-02-15T07:27:50.473Z,1.38
2023-02-15T07:30:19.992Z,1.16
2023-02-15T07:33:05.846Z,1.48
2023-02-15T07:35:34.259Z,0.72
2023-02-15T07:38:02.536Z,0.75
2023-02-15T07:40:30.483Z,0.76
2023-02-15T07:43:00.329Z,1.57
2023-02-15T07:45:29.718Z,1.84
2023-02-15T07:47:57.722Z,1.91
2023-02-15T07:50:25.662Z,0.85
2023-02-15T07:52:53.602Z,1.05
2023-02-15T07:55:21.760Z,1.09
2023-02-15T07:57:50.829Z,0.93
2023-02-15T08:00:21.483Z,0.72
2023-02-15T08:03:12.009Z,0.55
2023-02-15T08:05:40.483Z,0.44
2023-02-15T08:08:08.427Z,0.40
2023-02-15T08:10:55.281Z,0.36
2023-02-15T08:13:23.184Z,0.47
2023-02-15T08:15:52.149Z,0.82
2023-02-15T08:18:21.439Z,0.75
2023-02-15T08:20:51.673Z,0.80
2023-02-15T08:23:19.750Z,1.02
2023-02-15T08:25:47.652Z,0.88
2023-02-15T08:28:15.600Z,0.70
2023-02-15T08:30:43.467Z,0.73
2023-02-15T08:33:11.628Z,0.73
2023-02-15T08:35:40.920Z,0.93
2023-02-15T08:38:08.825Z,0.92
2023-02-15T08:40:39.030Z,0.60
2023-02-15T08:43:08.114Z,1.02
2023-02-15T08:45:36.095Z,0.90
2023-02-15T08:48:04.060Z,1.26
2023-02-15T08:50:32.004Z,1.22
2023-02-15T08:53:01.378Z,0.83
2023-02-15T08:55:29.275Z,1.66
2023-02-15T08:57:57.208Z,1.82
2023-02-15T09:00:26.143Z,1.49
2023-02-15T09:02:54.316Z,1.64
2023-02-15T09:05:22.232Z,2.09
2023-02-15T09:07:50.166Z,1.63
2023-02-15T09:10:19.852Z,1.40
2023-02-15T09:12:47.768Z,1.90
2023-02-15T09:15:15.910Z,1.89
2023-02-15T09:17:43.792Z,1.76
2023-02-15T09:20:12.412Z,1.77
2023-02-15T09:22:40.327Z,1.36
2023-02-15T09:25:08.496Z,1.73
2023-02-15T09:27:37.799Z,1.94
2023-02-15T09:30:08.794Z,2.04
2023-02-15T09:32:37.148Z,2.43
2023-02-15T09:35:05.324Z,2.55
2023-02-15T09:37:34.068Z,1.55
2023-02-15T09:40:01.952Z,1.73
2023-02-15T09:43:14.906Z,1.63
2023-02-15T09:45:53.265Z,2.08
2023-02-15T09:48:42.134Z,2.48
2023-02-15T09:51:52.637Z,2.84
2023-02-15T09:54:28.979Z,2.37
2023-02-15T09:57:01.721Z,2.32
2023-02-15T09:59:37.572Z,2.13
2023-02-15T10:02:18.324Z,2.08
2023-02-15T10:04:57.648Z,2.27
2023-02-15T10:07:38.702Z,2.34
2023-02-15T10:10:17.272Z,2.00
2023-02-15T10:12:56.423Z,2.13
2023-02-15T10:15:31.814Z,2.46
2023-02-15T10:18:12.616Z,2.31
2023-02-15T10:20:45.963Z,2.39
2023-02-15T10:23:28.062Z,2.56
2023-02-15T10:26:03.161Z,2.58
2023-02-15T10:28:39.298Z,2.78
2023-02-15T10:31:15.206Z,2.82
2023-02-15T10:33:46.849Z,2.84
2023-02-15T10:36:26.046Z,3.12
2023-02-15T10:38:59.172Z,2.99
2023-02-15T10:41:35.423Z,3.17
2023-02-15T10:44:23.379Z,3.51
2023-02-15T10:47:01.850Z,3.50
2023-02-15T10:49:43.153Z,3.58
2023-02-15T10:52:19.989Z,3.41
2023-02-15T10:54:51.556Z,3.31
2023-02-15T10:57:26.501Z,3.22
2023-02-15T11:00:05.312Z,3.45
2023-02-15T11:02:45.232Z,3.42
2023-02-15T11:05:27.200Z,3.57
2023-02-15T11:07:57.767Z,3.75
2023-02-15T11:10:31.995Z,3.84
2023-02-15T11:13:04.527Z,3.82
2023-02-15T11:15:35.515Z,3.73
2023-02-15T11:18:08.517Z,4.01
2023-02-15T11:20:40.884Z,4.20
2023-02-15T11:23:17.214Z,4.19
2023-02-15T11:25:47.903Z,4.16
2023-02-15T11:28:20.979Z,4.13
2023-02-15T11:30:53.181Z,4.17
2023-02-15T11:33:24.816Z,4.21
2023-02-15T11:35:59.804Z,4.62
2023-02-15T11:38:30.946Z,4.66
2023-02-15T11:41:02.819Z,4.77
2023-02-15T11:43:35.423Z,4.70
2023-02-15T11:46:03.798Z,4.78
2023-02-15T11:48:32.768Z,5.06
2023-02-15T11:51:04.677Z,5.19
2023-02-15T11:53:35.032Z,5.28
2023-02-15T11:56:05.293Z,5.40
2023-02-15T11:58:38.468Z,5.14
2023-02-15T12:01:14.231Z,5.12
2023-02-15T12:03:47.613Z,5.64
2023-02-15T12:06:22.858Z,5.95
2023-02-15T12:08:56.693Z,6.17
2023-02-15T12:11:30.513Z,5.98
2023-02-15T12:14:00.495Z,6.23
2023-02-15T12:16:30.342Z,6.16
2023-02-15T12:19:00.863Z,6.44
2023-02-15T12:21:32.443Z,6.57
2023-02-15T12:24:06.258Z,6.79
2023-02-15T12:26:37.017Z,7.17
2023-02-15T12:29:10.266Z,7.14
2023-02-15T12:31:41.511Z,7.34
2023-02-15T12:34:13.927Z,7.49
2023-02-15T12:36:46.702Z,7.65
2023-02-15T12:39:21.739Z,7.82
2023-02-15T12:42:01.100Z,8.11
2023-02-15T12:44:30.304Z,7.83
2023-02-15T12:47:01.061Z,7.85
2023-02-15T12:49:30.248Z,8.01
2023-02-15T12:52:01.369Z,8.17
2023-02-15T12:54:39.709Z,8.14
2023-02-15T12:57:23.836Z,8.38
2023-02-15T12:59:53.468Z,8.30
2023-02-15T13:02:27.638Z,8.60
2023-02-15T13:04:56.446Z,8.82
2023-02-15T13:07:27.285Z,8.92
2023-02-15T13:09:55.488Z,9.02
2023-02-15T13:12:27.444Z,9.25
2023-02-15T13:14:57.239Z,9.22
2023-02-15T13:17:30.440Z,9.20
2023-02-15T13:20:00.484Z,9.33
2023-02-15T13:22:35.875Z,9.46
2023-02-15T13:25:07.549Z,9.42
2023-02-15T13:27:39.596Z,9.35
2023-02-15T13:30:20.195Z,9.56
2023-02-15T13:32:48.673Z,9.51
2023-02-15T13:35:18.399Z,9.27
2023-02-15T13:37:58.096Z,9.26
2023-02-15T13:40:29.683Z,9.16
2023-02-15T13:42:59.604Z,9.39
2023-02-15T13:45:38.388Z,9.64
2023-02-15T13:48:15.437Z,9.72
2023-02-15T13:50:55.159Z,9.79
2023-02-15T13:53:42.555Z,9.87
2023-02-15T13:56:16.088Z,9.84
2023-02-15T13:59:06.971Z,9.78
2023-02-15T14:01:41.702Z,9.81
2023-02-15T14:04:57.517Z,10.07
2023-02-15T14:07:46.674Z,9.78
2023-02-15T14:10:27.347Z,9.95
2023-02-15T14:13:06.609Z,9.93
2023-02-15T14:15:42.135Z,10.11
2023-02-15T14:18:18.321Z,10.06
2023-02-15T14:20:53.459Z,9.85
2023-02-15T14:23:32.792Z,9.78
2023-02-15T14:26:06.195Z,9.94
2023-02-15T14:28:40.015Z,9.85
2023-02-15T14:31:11.933Z,9.85
2023-02-15T14:33:43.752Z,9.77
2023-02-15T14:36:15.235Z,9.92
2023-02-15T14:38:53.960Z,10.03
2023-02-15T14:41:25.628Z,10.01
2023-02-15T14:44:00.812Z,10.17
2023-02-15T14:46:34.351Z,10.06
2023-02-15T14:49:08.206Z,10.17
2023-02-15T14:51:59.100Z,10.20
2023-02-15T14:54:59.112Z,10.03
2023-02-15T14:57:46.342Z,9.85
2023-02-15T15:00:34.471Z,9.79
2023-02-15T15:03:02.878Z,9.65
2023-02-15T15:05:35.387Z,9.66
2023-02-15T15:08:04.940Z,9.67
2023-02-15T15:10:44.789Z,9.76
2023-02-15T15:13:43.743Z,9.68
2023-02-15T15:16:31.316Z,9.60
2023-02-15T15:18:59.363Z,9.54
2023-02-15T15:21:55.669Z,9.48
2023-02-15T15:24:54.445Z,9.30
2023-02-15T15:27:51.290Z,9.25
2023-02-15T15:30:52.209Z,9.22
2023-02-15T15:33:46.719Z,9.14
2023-02-15T15:36:42.692Z,9.15
2023-02-15T15:39:23.465Z,9.05
2023-02-15T15:41:55.708Z,9.02
2023-02-15T15:44:44.858Z,9.00
2023-02-15T15:47:30.007Z,8.93
2023-02-15T15:49:58.808Z,8.92
2023-02-15T15:52:27.501Z,8.79
2023-02-15T15:54:58.517Z,8.71
2023-02-15T15:57:37.505Z,8.71
2023-02-15T16:00:06.943Z,8.61
2023-02-15T16:02:52.284Z,8.54
2023-02-15T16:05:20.186Z,8.52
2023-02-15T16:07:48.096Z,8.41
2023-02-15T16:10:23.763Z,8.48
2023-02-15T16:12:52.747Z,8.46
2023-02-15T16:15:22.688Z,8.54
2023-02-15T16:17:55.889Z,8.31
2023-02-15T16:20:25.963Z,8.03
2023-02-15T16:23:11.108Z,8.12
2023-02-15T16:25:45.912Z,8.09
2023-02-15T16:28:14.669Z,7.68
2023-02-15T16:30:45.394Z,7.53
2023-02-15T16:33:16.681Z,7.47
2023-02-15T16:35:56.613Z,7.48
2023-02-15T16:38:36.608Z,7.33
2023-02-15T16:41:04.821Z,7.35
2023-02-15T16:43:34.029Z,7.34
2023-02-15T16:46:06.504Z,7.14
2023-02-15T16:48:37.602Z,7.03
2023-02-15T16:51:06.000Z,6.88
2023-02-15T16:53:34.062Z,6.73
2023-02-15T16:56:03.653Z,6.57
2023-02-15T16:58:34.536Z,6.51
2023-02-15T17:01:03.815Z,6.67
2023-02-15T17:03:32.276Z,6.87
2023-02-15T17:06:03.864Z,6.99
2023-02-15T17:08:33.383Z,6.75
2023-02-15T17:11:13.803Z,6.56
2023-02-15T17:13:42.923Z,6.56
2023-02-15T17:16:25.407Z,6.56
2023-02-15T17:18:54.875Z,6.40
2023-02-15T17:21:28.105Z,6.32
2023-02-15T17:24:01.153Z,6.18
2023-02-15T17:26:31.964Z,6.09
2023-02-15T17:29:01.980Z,6.14
2023-02-15T17:31:33.802Z,6.17
2023-02-15T17:34:02.748Z,6.14
2023-02-15T17:36:32.780Z,6.10
2023-02-15T17:39:07.770Z,6.06
2023-02-15T17:41:38.168Z,5.98
2023-02-15T17:44:08.535Z,6.11
2023-02-15T17:46:38.353Z,6.16
2023-02-15T17:49:06.519Z,6.05
2023-02-15T17:51:36.562Z,6.01
2023-02-15T17:54:22.192Z,6.08
2023-02-15T17:56:50.089Z,6.08
2023-02-15T17:59:17.975Z,6.28
2023-02-15T18:02:05.987Z,6.32
2023-02-15T18:04:51.928Z,6.32
2023-02-15T18:07:39.159Z,6.31
2023-02-15T18:10:31.745Z,6.32
2023-02-15T18:12:59.696Z,6.33
2023-02-15T18:15:27.913Z,6.26
2023-02-15T18:17:56.137Z,6.25
2023-02-15T18:20:28.289Z,6.33
2023-02-15T18:22:57.830Z,6.18
2023-02-15T18:25:25.829Z,6.19
2023-02-15T18:27:55.390Z,6.27
2023-02-15T18:30:26.273Z,6.24
2023-02-15T18:32:56.722Z,6.19
2023-02-15T18:35:26.290Z,6.22
2023-02-15T18:37:54.998Z,6.19
2023-02-15T18:40:27.309Z,6.10
2023-02-15T18:42:57.124Z,6.24
2023-02-15T18:45:28.642Z,6.12
2023-02-15T18:47:56.635Z,6.10
2023-02-15T18:50:34.568Z,6.06
2023-02-15T18:53:04.166Z,6.03
2023-02-15T18:55:35.371Z,6.15
2023-02-15T18:58:03.450Z,6.13
2023-02-15T19:00:33.181Z,6.13
2023-02-15T19:03:02.215Z,6.18
2023-02-15T19:05:31.150Z,6.08
2023-02-15T19:08:00.134Z,6.00
2023-02-15T19:10:44.345Z,5.92
2023-02-15T19:13:13.868Z,5.92
2023-02-15T19:15:42.281Z,5.84
2023-02-15T19:18:10.208Z,5.83
2023-02-15T19:20:40.060Z,5.73
2023-02-15T19:23:09.947Z,5.45
2023-02-15T19:25:39.565Z,5.24
2023-02-15T19:28:13.384Z,5.25
2023-02-15T19:30:42.680Z,5.18
2023-02-15T19:33:17.690Z,5.22
2023-02-15T19:35:46.875Z,5.11
2023-02-15T19:38:18.489Z,5.14
2023-02-15T19:40:46.889Z,5.08
2023-02-15T19:43:17.599Z,5.08
2023-02-15T19:45:47.085Z,4.88
2023-02-15T19:48:15.709Z,4.71
2023-02-15T19:50:44.710Z,4.79
2023-02-15T19:53:22.877Z,4.83
2023-02-15T19:55:52.112Z,4.70
2023-02-15T19:58:20.466Z,4.78
2023-02-15T20:00:51.240Z,4.89
2023-02-15T20:03:19.149Z,4.81
2023-02-15T20:05:47.587Z,5.01
2023-02-15T20:08:18.799Z,5.15
2023-02-15T20:10:46.779Z,5.25
2023-02-15T20:13:16.315Z,5.21
2023-02-15T20:15:44.840Z,5.16
2023-02-15T20:18:14.461Z,5.15
2023-02-15T20:20:44.347Z,5.14
2023-02-15T20:23:19.466Z,5.02
2023-02-15T20:25:47.730Z,4.95
2023-02-15T20:28:20.385Z,4.86
2023-02-15T20:30:48.535Z,4.86
2023-02-15T20:33:18.796Z,4.83
2023-02-15T20:35:47.343Z,4.80
2023-02-15T20:38:19.476Z,4.65
2023-02-15T20:41:01.938Z,4.59
2023-02-15T20:43:30.232Z,4.48
2023-02-15T20:45:58.158Z,4.56
2023-02-15T20:48:27.583Z,4.57
2023-02-15T20:50:55.541Z,4.53
2023-02-15T20:53:23.637Z,4.50
2023-02-15T20:55:51.559Z,4.50
2023-02-15T20:58:23.912Z,4.51
2023-02-15T21:00:52.621Z,4.53
2023-02-15T21:03:23.244Z,4.47
2023-02-15T21:05:52.662Z,4.37
2023-02-15T21:08:22.194Z,4.36
2023-02-15T21:10:52.412Z,4.29
2023-02-15T21:13:23.307Z,4.26
2023-02-15T21:15:52.770Z,4.23
2023-02-15T21:18:23.113Z,4.19
2023-02-15T21:20:54.271Z,4.09
2023-02-15T21:23:25.089Z,4.08
2023-02-15T21:25:54.130Z,4.12
2023-02-15T21:28:24.584Z,4.16
2023-02-15T21:30:53.341Z,4.16
2023-02-15T21:33:21.497Z,4.21
2023-02-15T21:35:54.432Z,4.22
2023-02-15T21:38:24.100Z,4.32
2023-02-15T21:40:52.044Z,4.32
2023-02-15T21:43:40.846Z,4.31
2023-02-15T21:46:31.857Z,4.38
2023-02-15T21:49:00.201Z,4.51
2023-02-15T21:51:47.493Z,4.55
2023-02-15T21:54:15.947Z,4.52
2023-02-15T21:56:43.916Z,4.66
2023-02-15T21:59:12.892Z,4.58
2023-02-15T22:01:42.287Z,4.66
2023-02-15T22:04:14.098Z,4.67
2023-02-15T22:06:43.452Z,4.55
2023-02-15T22:09:16.564Z,4.62
2023-02-15T22:11:45.153Z,4.58
2023-02-15T22:14:32.156Z,4.57
2023-02-15T22:17:00.262Z,4.61
2023-02-15T22:19:30.065Z,4.62
2023-02-15T22:21:59.389Z,4.53
2023-02-15T22:24:29.054Z,4.53
2023-02-15T22:26:57.020Z,4.48
2023-02-15T22:29:24.939Z,4.50
2023-02-15T22:31:52.986Z,4.43
2023-02-15T22:34:27.418Z,4.50
2023-02-15T22:36:55.762Z,4.54
2023-02-15T22:39:25.352Z,4.57
2023-02-15T22:41:54.007Z,4.47
2023-02-15T22:44:25.245Z,4.40
2023-02-15T22:46:55.804Z,4.41
2023-02-15T22:49:23.808Z,4.37
2023-02-15T22:51:52.340Z,4.40
2023-02-15T22:54:22.008Z,4.33
2023-02-15T22:56:53.447Z,4.34
2023-02-15T22:59:24.511Z,4.30
2023-02-15T23:01:53.295Z,4.36
2023-02-15T23:04:24.100Z,4.37
2023-02-15T23:06:53.391Z,4.41
2023-02-15T23:09:21.560Z,4.44
2023-02-15T23:11:51.406Z,4.43
2023-02-15T23:14:25.919Z,4.44
2023-02-15T23:16:53.864Z,4.51
2023-02-15T23:19:22.281Z,4.49
2023-02-15T23:21:50.227Z,4.46
2023-02-15T23:24:20.860Z,4.42
2023-02-15T23:26:50.036Z,4.43
2023-02-15T23:29:21.526Z,4.35
2023-02-15T23:31:51.575Z,4.34
2023-02-15T23:34:21.847Z,4.37
2023-02-15T23:36:49.759Z,4.38
2023-02-15T23:39:37.262Z,4.34
2023-02-15T23:42:07.354Z,4.31
2023-02-15T23:44:37.243Z,4.34
2023-02-15T23:47:05.423Z,4.38
2023-02-15T23:49:33.375Z,4.40
2023-02-15T23:52:01.741Z,4.35
2023-02-15T23:54:29.636Z,4.31
2023-02-15T23:57:01.548Z,4.30
2023-02-15T23:59:32.306Z,4.33
